createdAt,value
2019-04-30T00:01:19.109Z,8.48
2019-04-30T00:03:59.899Z,8.10
2019-04-30T00:06:34.546Z,7.70
2019-04-30T00:08:57.724Z,9.40
2019-04-30T00:11:25.112Z,9.50
2019-04-30T00:13:55.315Z,8.82
2019-04-30T00:16:20.259Z,8.18
2019-04-30T00:18:59.834Z,9.23
2019-04-30T00:21:18.699Z,7.10
2019-04-30T00:23:45.899Z,8.45
2019-04-30T00:26:12.462Z,8.23
2019-04-30T00:28:46.222Z,8.05
2019-04-30T00:31:08.302Z,8.85
2019-04-30T00:33:37.085Z,7.22
2019-04-30T00:36:05.108Z,6.85
2019-04-30T00:38:36.081Z,8.20
2019-04-30T00:41:01.826Z,8.70
2019-04-30T00:43:29.372Z,9.45
2019-04-30T00:45:57.548Z,8.73
2019-04-30T00:48:31.028Z,8.93
2019-04-30T00:50:55.764Z,9.77
2019-04-30T00:53:22.450Z,11.10
2019-04-30T00:55:50.561Z,10.43
2019-04-30T00:58:24.732Z,9.73
2019-04-30T01:01:08.604Z,8.85
2019-04-30T01:03:39.421Z,9.30
2019-04-30T01:06:05.418Z,10.32
2019-04-30T01:08:33.029Z,9.68
2019-04-30T01:11:48.339Z,10.10
2019-04-30T01:13:29.875Z,9.20
2019-04-30T01:15:58.821Z,10.02
2019-04-30T01:18:28.607Z,10.25
2019-04-30T01:20:55.009Z,14.52
2019-04-30T01:23:22.973Z,11.27
2019-04-30T01:25:51.474Z,11.95
2019-04-30T01:28:22.899Z,14.68
2019-04-30T01:30:49.573Z,11.45
2019-04-30T01:33:16.705Z,11.23
2019-04-30T01:35:45.005Z,15.27
2019-04-30T01:38:13.084Z,13.23
2019-04-30T01:40:47.533Z,13.27
2019-04-30T01:43:11.385Z,14.85
2019-04-30T01:45:39.561Z,12.73
2019-04-30T01:48:10.762Z,13.48
2019-04-30T01:50:38.781Z,13.30
2019-04-30T01:53:04.727Z,13.48
2019-04-30T01:55:51.036Z,11.75
2019-04-30T01:58:24.559Z,12.52
2019-04-30T02:00:55.960Z,14.38
2019-04-30T02:03:24.187Z,16.87
2019-04-30T02:05:52.253Z,14.13
2019-04-30T02:08:20.303Z,12.57
2019-04-30T02:10:51.121Z,10.10
2019-04-30T02:13:16.568Z,13.70
2019-04-30T02:15:44.765Z,13.85
2019-04-30T02:18:12.714Z,14.18
2019-04-30T02:20:40.619Z,14.55
2019-04-30T02:23:09.724Z,14.02
2019-04-30T02:25:36.640Z,15.52
2019-04-30T02:28:05.412Z,15.77
2019-04-30T02:30:33.583Z,16.77
2019-04-30T02:33:01.436Z,16.35
2019-04-30T02:35:50.091Z,17.40
2019-04-30T02:38:20.250Z,17.90
2019-04-30T02:40:49.811Z,17.37
2019-04-30T02:43:16.444Z,18.33
2019-04-30T02:45:44.551Z,20.17
2019-04-30T02:48:12.245Z,19.45
2019-04-30T02:50:40.402Z,16.55
2019-04-30T02:53:11.929Z,19.62
2019-04-30T02:55:43.501Z,22.13
2019-04-30T02:58:12.466Z,17.83
2019-04-30T03:00:44.442Z,19.08
2019-04-30T03:03:12.405Z,17.15
2019-04-30T03:05:40.484Z,20.98
2019-04-30T03:08:09.671Z,20.27
2019-04-30T03:10:37.024Z,22.60
2019-04-30T03:13:06.233Z,21.50
2019-04-30T03:15:34.418Z,20.52
2019-04-30T03:18:12.188Z,21.85
2019-04-30T03:21:01.987Z,21.83
2019-04-30T03:23:30.361Z,22.80
2019-04-30T03:25:59.772Z,22.92
2019-04-30T03:28:29.885Z,25.25
2019-04-30T03:30:57.420Z,23.38
2019-04-30T03:33:23.408Z,26.40
2019-04-30T03:35:54.254Z,23.12
2019-04-30T03:38:20.419Z,24.42
2019-04-30T03:40:50.108Z,22.30
2019-04-30T03:43:15.042Z,23.65
2019-04-30T03:45:43.716Z,24.55
2019-04-30T03:48:11.495Z,24.15
2019-04-30T03:50:52.173Z,23.12
2019-04-30T03:53:10.232Z,26.05
2019-04-30T03:55:35.895Z,27.42
2019-04-30T03:58:04.025Z,22.27
2019-04-30T04:01:00.157Z,23.70
2019-04-30T04:03:25.261Z,17.35
2019-04-30T04:06:12.435Z,22.35
2019-04-30T04:09:00.231Z,18.75
2019-04-30T04:11:31.295Z,20.05
2019-04-30T04:13:59.763Z,19.75
2019-04-30T04:16:29.328Z,20.27
2019-04-30T04:18:55.932Z,21.45
2019-04-30T04:21:24.098Z,18.92
2019-04-30T04:23:51.863Z,19.10
2019-04-30T04:26:20.422Z,22.92
2019-04-30T04:28:49.625Z,19.52
2019-04-30T04:31:19.401Z,23.40
2019-04-30T04:33:52.325Z,22.08
2019-04-30T04:36:17.043Z,24.60
2019-04-30T04:38:46.397Z,24.73
2019-04-30T04:41:14.582Z,26.35
2019-04-30T04:43:42.946Z,26.48
2019-04-30T04:46:11.182Z,22.30
2019-04-30T04:48:39.555Z,24.85
2019-04-30T04:51:14.410Z,23.02
2019-04-30T04:53:35.181Z,23.62
2019-04-30T04:56:03.386Z,25.08
2019-04-30T04:58:30.618Z,24.77
2019-04-30T05:00:59.250Z,25.73
2019-04-30T05:03:30.713Z,25.90
2019-04-30T05:06:01.887Z,25.30
2019-04-30T05:08:28.406Z,24.67
2019-04-30T05:10:55.286Z,24.75
2019-04-30T05:13:23.243Z,26.70
2019-04-30T05:15:51.700Z,25.58
2019-04-30T05:18:19.346Z,24.73
2019-04-30T05:20:49.055Z,29.37
2019-04-30T05:23:16.337Z,25.67
2019-04-30T05:25:44.830Z,26.85
2019-04-30T05:28:13.502Z,25.25
2019-04-30T05:30:41.362Z,25.52
2019-04-30T05:33:09.497Z,24.27
2019-04-30T05:35:38.896Z,22.98
2019-04-30T05:38:05.813Z,24.52
2019-04-30T05:40:34.480Z,22.70
2019-04-30T05:43:02.348Z,23.67
2019-04-30T05:45:30.498Z,20.45
2019-04-30T05:47:58.930Z,23.80
2019-04-30T05:50:26.759Z,21.65
2019-04-30T05:52:55.027Z,20.45
2019-04-30T05:55:23.203Z,19.15
2019-04-30T05:57:55.794Z,20.42
2019-04-30T06:00:19.670Z,17.87
2019-04-30T06:02:49.748Z,20.88
2019-04-30T06:05:18.814Z,17.87
2019-04-30T06:07:49.551Z,18.33
2019-04-30T06:10:26.296Z,15.95
2019-04-30T06:13:05.233Z,18.10
2019-04-30T06:15:56.537Z,17.35
2019-04-30T06:18:28.793Z,17.35
2019-04-30T06:20:59.545Z,16.60
2019-04-30T06:23:29.385Z,17.25
2019-04-30T06:26:00.069Z,17.27
2019-04-30T06:28:24.051Z,17.83
2019-04-30T06:30:52.601Z,18.25
2019-04-30T06:33:21.248Z,18.40
2019-04-30T06:35:49.396Z,24.77
2019-04-30T06:38:18.464Z,20.00
2019-04-30T06:40:45.847Z,17.05
2019-04-30T06:43:14.456Z,17.87
2019-04-30T06:45:41.946Z,16.98
2019-04-30T06:48:09.746Z,20.48
2019-04-30T06:50:39.315Z,18.02
2019-04-30T06:53:06.287Z,21.37
2019-04-30T06:55:34.468Z,19.87
2019-04-30T06:58:12.121Z,19.15
2019-04-30T07:00:36.859Z,19.85
2019-04-30T07:03:05.019Z,21.52
2019-04-30T07:05:33.092Z,22.27
2019-04-30T07:08:19.293Z,21.75
2019-04-30T07:10:53.709Z,20.65
2019-04-30T07:13:18.805Z,23.67
2019-04-30T07:15:46.200Z,24.37
2019-04-30T07:18:14.032Z,27.15
2019-04-30T07:20:42.144Z,24.30
2019-04-30T07:23:10.696Z,24.75
2019-04-30T07:25:39.624Z,25.50
2019-04-30T07:28:09.069Z,21.85
2019-04-30T07:30:36.446Z,22.62
2019-04-30T07:33:04.512Z,22.50
2019-04-30T07:35:32.545Z,22.95
2019-04-30T07:38:04.802Z,20.10
2019-04-30T07:40:29.340Z,26.20
2019-04-30T07:42:58.925Z,23.23
2019-04-30T07:45:25.869Z,25.80
2019-04-30T07:47:53.333Z,26.42
2019-04-30T07:50:22.314Z,24.95
2019-04-30T07:53:01.712Z,23.75
2019-04-30T07:55:19.647Z,27.23
2019-04-30T07:57:46.490Z,28.38
2019-04-30T08:00:15.279Z,24.52
2019-04-30T08:02:50.505Z,25.33
2019-04-30T08:05:32.997Z,23.10
2019-04-30T08:08:16.763Z,29.08
2019-04-30T08:10:29.722Z,25.45
2019-04-30T08:13:08.562Z,27.98
2019-04-30T08:15:24.869Z,24.63
2019-04-30T08:18:02.674Z,24.40
2019-04-30T08:20:22.130Z,27.95
2019-04-30T08:22:50.214Z,28.27
2019-04-30T08:25:19.740Z,27.15
2019-04-30T08:27:49.101Z,26.90
2019-04-30T08:30:25.587Z,31.33
2019-04-30T08:32:42.889Z,26.05
2019-04-30T08:35:10.875Z,25.85
2019-04-30T08:37:38.959Z,25.65
2019-04-30T08:40:08.707Z,29.00
2019-04-30T08:42:37.713Z,28.48
2019-04-30T08:45:03.954Z,27.17
2019-04-30T08:47:32.045Z,27.30
2019-04-30T08:50:02.656Z,30.52
2019-04-30T08:52:30.503Z,25.23
2019-04-30T08:54:57.085Z,29.45
2019-04-30T08:57:25.280Z,28.87
2019-04-30T08:59:53.157Z,23.50
2019-04-30T09:02:21.396Z,29.90
2019-04-30T09:04:51.849Z,28.00
2019-04-30T09:07:20.176Z,26.48
2019-04-30T09:09:48.845Z,26.23
2019-04-30T09:12:15.976Z,31.23
2019-04-30T09:14:44.115Z,27.87
2019-04-30T09:17:11.615Z,29.50
2019-04-30T09:19:39.743Z,31.05
2019-04-30T09:22:14.938Z,29.77
2019-04-30T09:24:36.608Z,28.17
2019-04-30T09:27:04.115Z,29.08
2019-04-30T09:29:32.944Z,24.83
2019-04-30T09:32:01.014Z,26.42
2019-04-30T09:34:30.326Z,27.98
2019-04-30T09:36:59.029Z,30.33
2019-04-30T09:39:26.245Z,26.65
2019-04-30T09:41:54.629Z,29.80
2019-04-30T09:44:22.704Z,26.02
2019-04-30T09:46:50.777Z,31.05
2019-04-30T09:49:19.533Z,25.52
2019-04-30T09:51:49.467Z,28.00
2019-04-30T09:54:16.116Z,30.37
2019-04-30T09:56:43.965Z,25.62
2019-04-30T09:59:12.045Z,24.20
2019-04-30T10:01:40.650Z,28.85
2019-04-30T10:04:10.282Z,28.92
2019-04-30T10:06:40.225Z,28.83
2019-04-30T10:09:06.892Z,27.77
2019-04-30T10:11:52.842Z,27.15
2019-04-30T10:14:20.994Z,26.27
2019-04-30T10:17:14.110Z,27.02
2019-04-30T10:19:42.178Z,26.50
2019-04-30T10:22:10.076Z,28.00
2019-04-30T10:24:39.317Z,26.33
2019-04-30T10:27:10.445Z,24.98
2019-04-30T10:29:33.773Z,28.92
2019-04-30T10:32:03.176Z,21.67
2019-04-30T10:34:31.223Z,27.73
2019-04-30T10:37:02.623Z,25.12
2019-04-30T10:39:29.563Z,23.65
2019-04-30T10:41:55.653Z,25.25
2019-04-30T10:44:23.737Z,25.23
2019-04-30T10:46:51.914Z,23.60
2019-04-30T10:49:19.997Z,25.17
2019-04-30T10:51:48.087Z,23.10
2019-04-30T10:54:24.015Z,28.60
2019-04-30T10:56:44.581Z,19.85
2019-04-30T10:59:12.664Z,22.50
2019-04-30T11:01:40.839Z,23.33
2019-04-30T11:04:08.709Z,27.25
2019-04-30T11:06:36.793Z,26.45
2019-04-30T11:09:06.611Z,24.05
2019-04-30T11:11:34.669Z,27.37
2019-04-30T11:14:02.732Z,26.90
2019-04-30T11:16:30.814Z,26.77
2019-04-30T11:18:59.328Z,22.52
2019-04-30T11:21:26.311Z,23.25
2019-04-30T11:23:54.762Z,22.40
2019-04-30T11:26:22.806Z,24.35
2019-04-30T11:28:50.697Z,25.10
2019-04-30T11:31:36.299Z,23.55
2019-04-30T11:34:05.748Z,21.98
2019-04-30T11:36:33.821Z,20.33
2019-04-30T11:39:02.180Z,26.27
2019-04-30T11:41:33.061Z,23.98
2019-04-30T11:43:59.500Z,26.62
2019-04-30T11:46:34.500Z,24.37
2019-04-30T11:49:03.066Z,23.50
2019-04-30T11:51:31.633Z,21.15
2019-04-30T11:53:59.755Z,23.30
2019-04-30T11:56:27.889Z,21.95
2019-04-30T11:58:56.438Z,21.52
2019-04-30T12:01:25.383Z,22.33
2019-04-30T12:03:53.845Z,19.58
2019-04-30T12:06:21.717Z,25.60
2019-04-30T12:09:14.692Z,26.95
2019-04-30T12:11:43.107Z,22.10
2019-04-30T12:14:11.256Z,23.17
2019-04-30T12:16:40.138Z,26.65
2019-04-30T12:19:09.058Z,19.20
2019-04-30T12:21:35.948Z,23.87
2019-04-30T12:24:04.140Z,19.20
2019-04-30T12:26:32.298Z,23.10
2019-04-30T12:29:00.391Z,22.60
2019-04-30T12:31:29.745Z,21.23
2019-04-30T12:33:56.521Z,18.15
2019-04-30T12:36:24.900Z,18.83
2019-04-30T12:38:53.800Z,20.48
2019-04-30T12:41:21.565Z,19.37
2019-04-30T12:43:49.612Z,17.83
2019-04-30T12:46:19.048Z,19.37
2019-04-30T12:49:10.570Z,20.75
2019-04-30T12:51:46.413Z,20.75
2019-04-30T12:54:25.586Z,23.75
2019-04-30T12:57:15.745Z,20.83
2019-04-30T12:59:43.480Z,19.60
2019-04-30T13:02:11.569Z,19.60
2019-04-30T13:04:39.510Z,21.20
2019-04-30T13:07:10.021Z,19.67
2019-04-30T13:09:36.128Z,18.10
2019-04-30T13:12:04.122Z,18.48
2019-04-30T13:14:31.983Z,21.92
2019-04-30T13:16:59.740Z,22.50
2019-04-30T13:19:27.929Z,20.23
2019-04-30T13:21:58.515Z,21.12
2019-04-30T13:24:24.151Z,18.40
2019-04-30T13:26:52.490Z,21.83
2019-04-30T13:29:25.664Z,17.73
2019-04-30T13:31:53.857Z,17.35
2019-04-30T13:35:00.840Z,19.98
2019-04-30T13:37:35.032Z,19.73
2019-04-30T13:40:12.758Z,20.60
2019-04-30T13:42:44.077Z,21.27
2019-04-30T13:45:11.842Z,19.90
2019-04-30T13:47:40.308Z,19.73
2019-04-30T13:50:09.325Z,23.87
2019-04-30T13:52:36.489Z,21.73
2019-04-30T13:55:05.381Z,19.60
2019-04-30T13:57:34.401Z,21.50
2019-04-30T14:00:00.926Z,19.85
2019-04-30T14:02:30.963Z,19.48
2019-04-30T14:05:08.604Z,20.95
2019-04-30T14:08:13.758Z,19.80
2019-04-30T14:10:43.766Z,22.05
2019-04-30T14:13:11.962Z,18.83
2019-04-30T14:15:40.810Z,20.95
2019-04-30T14:18:09.435Z,20.48
2019-04-30T14:20:36.647Z,19.58
2019-04-30T14:23:04.529Z,22.00
2019-04-30T14:25:32.609Z,26.58
2019-04-30T14:28:00.675Z,22.15
2019-04-30T14:30:29.330Z,26.50
2019-04-30T14:32:59.190Z,22.27
2019-04-30T14:35:25.645Z,20.88
2019-04-30T14:37:54.101Z,20.77
2019-04-30T14:40:23.644Z,20.48
2019-04-30T14:42:59.757Z,22.33
2019-04-30T14:45:30.416Z,26.55
2019-04-30T14:48:02.777Z,22.77
2019-04-30T14:50:31.049Z,20.00
2019-04-30T14:53:24.308Z,20.02
2019-04-30T14:56:24.130Z,17.62
2019-04-30T14:59:18.698Z,20.67
2019-04-30T15:01:51.706Z,20.50
2019-04-30T15:04:20.380Z,21.98
2019-04-30T15:06:45.474Z,21.62
2019-04-30T15:09:14.064Z,20.75
2019-04-30T15:11:42.255Z,19.20
2019-04-30T15:14:10.298Z,17.85
2019-04-30T15:16:39.200Z,20.98
2019-04-30T15:19:07.249Z,25.12
2019-04-30T15:21:35.317Z,19.48
2019-04-30T15:24:29.319Z,22.05
2019-04-30T15:26:58.129Z,27.27
2019-04-30T15:29:24.433Z,19.80
2019-04-30T15:31:52.927Z,18.02
2019-04-30T15:34:21.006Z,15.88
2019-04-30T15:36:49.341Z,19.75
2019-04-30T15:39:33.120Z,20.15
2019-04-30T15:42:01.763Z,21.85
2019-04-30T15:44:29.866Z,17.75
2019-04-30T15:47:00.622Z,21.33
2019-04-30T15:49:27.064Z,16.05
2019-04-30T15:51:55.217Z,19.92
2019-04-30T15:54:23.378Z,20.00
2019-04-30T15:56:51.157Z,15.63
2019-04-30T15:59:39.805Z,18.70
2019-04-30T16:02:14.413Z,18.50
2019-04-30T16:05:14.371Z,15.55
2019-04-30T16:07:49.232Z,21.10
2019-04-30T16:10:29.296Z,20.85
2019-04-30T16:13:06.294Z,20.80
2019-04-30T16:15:35.242Z,20.15
2019-04-30T16:18:03.067Z,81.12
2019-04-30T16:20:31.256Z,24.42
2019-04-30T16:22:59.619Z,17.20
2019-04-30T16:25:27.692Z,17.08
2019-04-30T16:27:55.781Z,16.12
2019-04-30T16:30:24.125Z,15.95
2019-04-30T16:32:51.926Z,16.52
2019-04-30T16:35:19.732Z,12.25
2019-04-30T16:37:49.489Z,20.10
2019-04-30T16:40:15.715Z,18.40
2019-04-30T16:42:43.781Z,14.57
2019-04-30T16:45:15.029Z,13.77
2019-04-30T16:47:43.125Z,14.50
2019-04-30T16:50:11.853Z,15.95
2019-04-30T16:52:40.070Z,14.73
2019-04-30T16:55:07.533Z,17.20
2019-04-30T16:57:35.294Z,15.00
2019-04-30T17:00:04.073Z,16.98
2019-04-30T17:02:32.131Z,14.82
2019-04-30T17:05:03.275Z,13.80
2019-04-30T17:07:50.799Z,13.40
2019-04-30T17:10:56.265Z,15.52
2019-04-30T17:13:28.998Z,15.63
2019-04-30T17:15:59.888Z,14.80
2019-04-30T17:18:29.734Z,15.30
2019-04-30T17:20:55.826Z,15.07
2019-04-30T17:23:23.680Z,15.80
2019-04-30T17:25:51.785Z,14.50
2019-04-30T17:28:19.729Z,13.15
2019-04-30T17:30:49.125Z,13.57
2019-04-30T17:33:15.885Z,15.65
2019-04-30T17:35:44.222Z,14.10
2019-04-30T17:38:12.123Z,15.85
2019-04-30T17:40:39.882Z,13.90
2019-04-30T17:43:08.304Z,15.27
2019-04-30T17:45:36.539Z,16.12
2019-04-30T17:48:05.216Z,15.05
2019-04-30T17:50:33.384Z,15.63
2019-04-30T17:53:01.484Z,15.02
2019-04-30T17:55:29.699Z,13.70
2019-04-30T17:57:58.576Z,14.13
2019-04-30T18:00:26.076Z,13.45
2019-04-30T18:02:53.982Z,13.27
2019-04-30T18:05:22.651Z,17.08
2019-04-30T18:07:50.721Z,13.85
2019-04-30T18:10:19.835Z,13.55
2019-04-30T18:12:47.095Z,12.25
2019-04-30T18:15:16.756Z,14.50
2019-04-30T18:17:46.366Z,11.82
2019-04-30T18:20:19.243Z,14.40
2019-04-30T18:23:12.697Z,13.90
2019-04-30T18:25:50.339Z,14.75
2019-04-30T18:28:19.115Z,15.02
2019-04-30T18:30:46.679Z,13.07
2019-04-30T18:33:15.280Z,12.85
2019-04-30T18:35:43.358Z,14.77
2019-04-30T18:38:11.510Z,15.10
2019-04-30T18:40:39.921Z,16.35
2019-04-30T18:43:07.734Z,17.27
2019-04-30T18:45:36.338Z,15.57
2019-04-30T18:48:05.343Z,17.30
2019-04-30T18:50:33.311Z,16.40
2019-04-30T18:53:02.075Z,15.48
2019-04-30T18:55:29.955Z,16.37
2019-04-30T18:58:01.273Z,14.13
2019-04-30T19:00:40.635Z,15.80
2019-04-30T19:03:08.785Z,13.30
2019-04-30T19:05:36.898Z,13.10
2019-04-30T19:08:09.830Z,12.65
2019-04-30T19:10:53.720Z,13.90
2019-04-30T19:13:45.945Z,16.02
2019-04-30T19:16:31.947Z,13.02
2019-04-30T19:19:19.550Z,15.18
2019-04-30T19:21:46.376Z,16.27
2019-04-30T19:24:14.520Z,13.38
2019-04-30T19:26:43.905Z,13.48
2019-04-30T19:29:12.046Z,12.93
2019-04-30T19:31:40.117Z,13.38
2019-04-30T19:34:09.760Z,13.77
2019-04-30T19:36:37.668Z,13.60
2019-04-30T19:39:06.155Z,14.18
2019-04-30T19:41:34.322Z,14.32
2019-04-30T19:44:02.215Z,14.07
2019-04-30T19:46:30.343Z,14.95
2019-04-30T19:48:58.784Z,16.35
2019-04-30T19:51:29.648Z,13.68
2019-04-30T19:53:56.173Z,17.00
2019-04-30T19:56:24.838Z,17.15
2019-04-30T19:59:01.990Z,16.17
2019-04-30T20:01:21.192Z,16.87
2019-04-30T20:03:49.072Z,16.23
2019-04-30T20:06:16.821Z,15.93
2019-04-30T20:08:44.562Z,17.23
2019-04-30T20:11:12.856Z,20.15
2019-04-30T20:13:40.919Z,20.88
2019-04-30T20:16:09.601Z,19.62
2019-04-30T20:18:38.884Z,16.85
2019-04-30T20:21:09.088Z,16.80
2019-04-30T20:23:35.170Z,17.10
2019-04-30T20:26:04.397Z,16.37
2019-04-30T20:28:39.148Z,20.12
2019-04-30T20:31:00.412Z,15.00
2019-04-30T20:33:28.978Z,17.95
2019-04-30T20:35:58.910Z,17.92
2019-04-30T20:38:56.352Z,17.00
2019-04-30T20:41:24.546Z,19.33
2019-04-30T20:43:52.399Z,17.98
2019-04-30T20:46:32.062Z,17.75
2019-04-30T20:48:49.179Z,19.23
2019-04-30T20:51:16.424Z,19.77
2019-04-30T20:53:45.393Z,18.77
2019-04-30T20:56:13.470Z,14.60
2019-04-30T20:58:54.548Z,17.75
2019-04-30T21:01:10.003Z,17.87
2019-04-30T21:03:39.571Z,22.87
2019-04-30T21:06:06.031Z,17.62
2019-04-30T21:08:35.329Z,18.30
2019-04-30T21:11:03.457Z,18.30
2019-04-30T21:13:31.534Z,17.92
2019-04-30T21:15:59.686Z,19.35
2019-04-30T21:18:31.897Z,19.10
2019-04-30T21:20:56.065Z,16.98
2019-04-30T21:23:23.977Z,16.77
2019-04-30T21:25:52.063Z,20.77
2019-04-30T21:28:20.160Z,19.08
2019-04-30T21:30:48.430Z,19.33
2019-04-30T21:33:23.124Z,18.90
2019-04-30T21:35:54.070Z,18.58
2019-04-30T21:38:22.288Z,19.58
2019-04-30T21:40:51.442Z,17.55
2019-04-30T21:43:19.439Z,22.90
2019-04-30T21:45:49.345Z,18.65
2019-04-30T21:48:15.796Z,20.08
2019-04-30T21:50:44.458Z,17.25
2019-04-30T21:53:12.530Z,18.87
2019-04-30T21:55:41.331Z,20.02
2019-04-30T21:58:09.724Z,23.75
2019-04-30T22:01:08.608Z,19.80
2019-04-30T22:03:36.778Z,21.75
2019-04-30T22:06:04.972Z,20.17
2019-04-30T22:08:33.596Z,23.90
2019-04-30T22:11:02.461Z,24.02
2019-04-30T22:13:51.389Z,19.77
2019-04-30T22:16:20.466Z,16.00
2019-04-30T22:18:47.734Z,18.95
2019-04-30T22:21:15.885Z,18.87
2019-04-30T22:23:44.240Z,17.73
2019-04-30T22:26:12.972Z,21.58
2019-04-30T22:28:41.246Z,18.00
2019-04-30T22:31:09.243Z,17.75
2019-04-30T22:33:39.167Z,24.02
2019-04-30T22:36:28.971Z,25.37
2019-04-30T22:39:13.644Z,21.92
2019-04-30T22:41:42.043Z,20.70
2019-04-30T22:44:10.221Z,19.37
2019-04-30T22:46:39.375Z,20.00
2019-04-30T22:49:06.282Z,20.37
2019-04-30T22:51:34.549Z,21.23
2019-04-30T22:54:02.760Z,24.52
2019-04-30T22:56:31.506Z,18.20
2019-04-30T22:59:00.625Z,18.83
2019-04-30T23:01:35.939Z,20.42
2019-04-30T23:04:06.830Z,19.23
2019-04-30T23:06:34.955Z,17.77
2019-04-30T23:09:02.927Z,23.38
2019-04-30T23:11:31.079Z,24.85
2019-04-30T23:13:59.138Z,23.42
2019-04-30T23:16:28.355Z,25.88
2019-04-30T23:18:56.403Z,22.30
2019-04-30T23:21:24.276Z,20.92
2019-04-30T23:23:52.648Z,20.30
2019-04-30T23:26:21.003Z,23.35
2019-04-30T23:28:49.148Z,17.98
2019-04-30T23:31:17.344Z,19.15
2019-04-30T23:33:45.476Z,22.23
2019-04-30T23:36:13.723Z,21.17
2019-04-30T23:38:41.892Z,20.80
2019-04-30T23:41:10.008Z,19.58
2019-04-30T23:43:38.152Z,21.67
2019-04-30T23:46:06.403Z,24.17
2019-04-30T23:48:34.328Z,20.95
2019-04-30T23:51:02.490Z,22.87
2019-04-30T23:53:30.740Z,23.25
2019-04-30T23:55:58.855Z,17.98
2019-04-30T23:58:26.796Z,23.45
